»·PEaware :: N1422E KSNA-KAVX

N1422E :: KSNA-KAVX

FLIGHT INFORMATION

Flight Status: Arrived
Operator: Privately registered:
United States
More flights under this callsign
Pilot: Jonathan B. (787)
Aircraft: CESSNA T210 TURBO CENTURION
(T210)
More flights by this aircraft type
Origin: KSNA John Wayne-Orange Co
United States
Destination: KAVX Catalina
United States
More flights between these airports :: More routes between these airports
Route: SLI V21 SXC
File this flight plan on PilotEdge
Remarks: none
Altitude:
(Current/Filed)
4,000ft
Speed:
(Current/Filed)
160kts
Departed: 22-Feb-20 01:56 PM
Arrived: 22-Feb-20 02:34 PM
Distance/Time
Traveled:
32nm/0:38
Distance/Time
To Go:
Arrived

Flight Plot

Page will automatically refresh every two minutes.


Map Options




Map Legend


Flown Route
Filed Route
Departure Airport
Arrival Airport
Navaid (VOR, NDB)
Fix

Horizontal Profiles

Position Reports

Time Latitude Longitude Heading Altitude Ground
Speed
22-Feb-20 13:43 33.675823 -117.871068 220 60ft 0kts
22-Feb-20 13:44 33.675823 -117.871068 220 60ft 0kts
22-Feb-20 13:45 33.675823 -117.871068 220 60ft 0kts
22-Feb-20 13:46 33.675823 -117.871068 220 60ft 0kts
22-Feb-20 13:47 33.675823 -117.871068 220 60ft 0kts
22-Feb-20 13:48 33.675823 -117.871068 220 60ft 0kts
22-Feb-20 13:49 33.675823 -117.871068 220 60ft 0kts
22-Feb-20 13:50 33.675823 -117.871068 220 60ft 0kts
22-Feb-20 13:51 33.676237 -117.870006 24 60ft 6kts
22-Feb-20 13:52 33.679283 -117.868103 26 60ft 8kts
22-Feb-20 13:53 33.681210 -117.866613 109 60ft 0kts
22-Feb-20 13:55 33.680649 -117.865734 206 60ft 0kts
22-Feb-20 13:56 33.676557 -117.868294 207 255ft 65kts
22-Feb-20 13:57 33.658335 -117.888834 221 1659ft 106kts
22-Feb-20 13:58 33.630628 -117.915718 219 2086ft 152kts
22-Feb-20 13:59 33.596058 -117.949281 219 2026ft 161kts
22-Feb-20 14:00 33.564805 -117.985013 239 2333ft 143kts
22-Feb-20 14:01 33.554166 -118.025017 246 3759ft 123kts
22-Feb-20 14:02 33.537962 -118.067218 237 4106ft 143kts
22-Feb-20 14:03 33.514261 -118.109090 238 4051ft 155kts
22-Feb-20 14:04 33.489785 -118.151535 221 3995ft 151kts
22-Feb-20 14:05 33.455324 -118.179675 213 3928ft 147kts
22-Feb-20 14:06 33.421039 -118.203442 213 3981ft 136kts
22-Feb-20 14:07 33.387455 -118.226606 212 3946ft 140kts
22-Feb-20 14:08 33.358476 -118.254706 260 4014ft 136kts
22-Feb-20 14:09 33.387728 -118.266711 30 3945ft 153kts
22-Feb-20 14:10 33.422331 -118.253364 300 4112ft 139kts
22-Feb-20 14:11 33.418096 -118.298457 244 4005ft 138kts
22-Feb-20 14:12 33.402419 -118.340234 252 4031ft 138kts
22-Feb-20 14:13 33.387881 -118.382089 247 3985ft 129kts
22-Feb-20 14:13 33.376340 -118.414131 248 3964ft 123kts
22-Feb-20 14:15 33.352016 -118.445857 191 4137ft 115kts
22-Feb-20 14:16 33.371653 -118.427812 25 4153ft 132kts
22-Feb-20 14:16 33.398992 -118.416075 3 4131ft 139kts
22-Feb-20 14:18 33.440777 -118.408735 359 3942ft 122kts
22-Feb-20 14:19 33.472150 -118.406689 320 3930ft 108kts
22-Feb-20 14:19 33.493725 -118.422166 338 3917ft 103kts
22-Feb-20 14:20 33.521228 -118.434994 321 3672ft 115kts
22-Feb-20 14:22 33.525518 -118.416041 156 3495ft 117kts
22-Feb-20 14:22 33.500461 -118.408532 168 3446ft 114kts
22-Feb-20 14:23 33.470457 -118.406661 185 3450ft 103kts
22-Feb-20 14:24 33.441572 -118.409909 193 3396ft 103kts
22-Feb-20 14:25 33.412985 -118.415505 254 2952ft 115kts
22-Feb-20 14:26 33.402845 -118.439310 132 2365ft 93kts
22-Feb-20 14:27 33.408247 -118.432213 351 1627ft 91kts
22-Feb-20 14:28 33.417718 -118.449623 256 2105ft 92kts
22-Feb-20 14:29 33.402747 -118.475774 199 2505ft 94kts
22-Feb-20 14:30 33.394778 -118.446976 70 1918ft 122kts
22-Feb-20 14:31 33.418605 -118.424833 68 1451ft 115kts
22-Feb-20 14:32 33.407200 -118.412032 237 1689ft 76kts
22-Feb-20 14:33 33.403366 -118.416083 125 1605ft 5kts

Navigation Log

Ident Type
Flight plan parsing failed, navigation log unavailable